sensor_id;sensor_type;location;lat;lon;timestamp;P1;durP1;ratioP1;P2;durP2;ratioP2
44116;SDS011;29781;49.480;8.512;2023-11-22T00:00:09;3.97;;;3.28;;
44116;SDS011;29781;49.480;8.512;2023-11-22T00:02:36;6.32;;;2.90;;
44116;SDS011;29781;49.480;8.512;2023-11-22T00:05:02;5.18;;;3.13;;
44116;SDS011;29781;49.480;8.512;2023-11-22T00:07:31;5.47;;;3.42;;
44116;SDS011;29781;49.480;8.512;2023-11-22T00:09:57;4.43;;;3.15;;
44116;SDS011;29781;49.480;8.512;2023-11-22T00:12:25;5.03;;;3.05;;
44116;SDS011;29781;49.480;8.512;2023-11-22T00:15:01;4.97;;;3.38;;
44116;SDS011;29781;49.480;8.512;2023-11-22T00:17:28;4.88;;;3.25;;
44116;SDS011;29781;49.480;8.512;2023-11-22T00:19:54;3.78;;;2.85;;
44116;SDS011;29781;49.480;8.512;2023-11-22T00:22:19;4.28;;;3.42;;
44116;SDS011;29781;49.480;8.512;2023-11-22T00:24:46;6.43;;;3.45;;
44116;SDS011;29781;49.480;8.512;2023-11-22T00:27:15;4.47;;;2.78;;
44116;SDS011;29781;49.480;8.512;2023-11-22T00:29:41;3.33;;;3.03;;
44116;SDS011;29781;49.480;8.512;2023-11-22T00:32:12;4.65;;;3.25;;
44116;SDS011;29781;49.480;8.512;2023-11-22T00:34:39;3.88;;;3.13;;
44116;SDS011;29781;49.480;8.512;2023-11-22T00:37:07;3.97;;;3.20;;
44116;SDS011;29781;49.480;8.512;2023-11-22T00:39:36;4.50;;;3.25;;
44116;SDS011;29781;49.480;8.512;2023-11-22T00:42:02;4.82;;;3.30;;
44116;SDS011;29781;49.480;8.512;2023-11-22T00:44:31;7.30;;;3.30;;
44116;SDS011;29781;49.480;8.512;2023-11-22T00:46:56;5.70;;;3.00;;
44116;SDS011;29781;49.480;8.512;2023-11-22T00:49:22;4.70;;;3.33;;
44116;SDS011;29781;49.480;8.512;2023-11-22T00:51:49;5.20;;;3.05;;
44116;SDS011;29781;49.480;8.512;2023-11-22T00:54:18;5.25;;;3.20;;
44116;SDS011;29781;49.480;8.512;2023-11-22T00:56:45;3.58;;;3.20;;
44116;SDS011;29781;49.480;8.512;2023-11-22T00:59:11;5.07;;;2.97;;
44116;SDS011;29781;49.480;8.512;2023-11-22T01:01:37;5.90;;;3.22;;
44116;SDS011;29781;49.480;8.512;2023-11-22T01:04:03;4.20;;;3.10;;
44116;SDS011;29781;49.480;8.512;2023-11-22T01:06:31;3.95;;;2.97;;
44116;SDS011;29781;49.480;8.512;2023-11-22T01:09:07;3.38;;;2.85;;
44116;SDS011;29781;49.480;8.512;2023-11-22T01:11:34;4.07;;;2.97;;
44116;SDS011;29781;49.480;8.512;2023-11-22T01:14:00;3.75;;;3.22;;
44116;SDS011;29781;49.480;8.512;2023-11-22T01:16:26;4.15;;;2.95;;
44116;SDS011;29781;49.480;8.512;2023-11-22T01:18:55;2.80;;;2.50;;
44116;SDS011;29781;49.480;8.512;2023-11-22T01:21:23;4.22;;;2.65;;
44116;SDS011;29781;49.480;8.512;2023-11-22T01:23:50;3.30;;;2.75;;
44116;SDS011;29781;49.480;8.512;2023-11-22T01:26:16;3.75;;;2.72;;
44116;SDS011;29781;49.480;8.512;2023-11-22T01:28:45;2.58;;;2.38;;
44116;SDS011;29781;49.480;8.512;2023-11-22T01:31:16;3.30;;;2.65;;
44116;SDS011;29781;49.480;8.512;2023-11-22T01:33:45;5.40;;;2.63;;
44116;SDS011;29781;49.480;8.512;2023-11-22T01:36:14;3.05;;;2.22;;
44116;SDS011;29781;49.480;8.512;2023-11-22T01:38:40;3.25;;;2.80;;
44116;SDS011;29781;49.480;8.512;2023-11-22T01:41:08;4.28;;;2.90;;
44116;SDS011;29781;49.480;8.512;2023-11-22T01:43:34;4.03;;;2.92;;
44116;SDS011;29781;49.480;8.512;2023-11-22T01:46:03;3.42;;;3.00;;
44116;SDS011;29781;49.480;8.512;2023-11-22T01:48:29;4.63;;;3.17;;
44116;SDS011;29781;49.480;8.512;2023-11-22T01:50:57;3.70;;;3.17;;
44116;SDS011;29781;49.480;8.512;2023-11-22T01:53:23;3.58;;;3.03;;
44116;SDS011;29781;49.480;8.512;2023-11-22T01:55:52;6.03;;;3.15;;
44116;SDS011;29781;49.480;8.512;2023-11-22T01:58:18;6.57;;;3.00;;
44116;SDS011;29781;49.480;8.512;2023-11-22T02:00:50;5.15;;;3.00;;
44116;SDS011;29781;49.480;8.512;2023-11-22T02:03:17;2.43;;;2.03;;
44116;SDS011;29781;49.480;8.512;2023-11-22T02:05:46;3.97;;;2.88;;
44116;SDS011;29781;49.480;8.512;2023-11-22T02:08:12;3.33;;;2.80;;
44116;SDS011;29781;49.480;8.512;2023-11-22T02:10:38;3.30;;;2.47;;
44116;SDS011;29781;49.480;8.512;2023-11-22T02:13:05;3.15;;;2.83;;
44116;SDS011;29781;49.480;8.512;2023-11-22T02:15:34;3.83;;;2.80;;
44116;SDS011;29781;49.480;8.512;2023-11-22T02:18:00;3.53;;;2.75;;
44116;SDS011;29781;49.480;8.512;2023-11-22T02:20:26;2.85;;;2.58;;
44116;SDS011;29781;49.480;8.512;2023-11-22T02:22:51;4.60;;;2.42;;
44116;SDS011;29781;49.480;8.512;2023-11-22T02:25:18;2.78;;;2.50;;
44116;SDS011;29781;49.480;8.512;2023-11-22T02:27:46;3.05;;;2.13;;
44116;SDS011;29781;49.480;8.512;2023-11-22T02:30:11;2.92;;;2.30;;
44116;SDS011;29781;49.480;8.512;2023-11-22T02:32:37;3.47;;;2.28;;
44116;SDS011;29781;49.480;8.512;2023-11-22T02:35:04;4.40;;;2.00;;
44116;SDS011;29781;49.480;8.512;2023-11-22T02:37:33;3.47;;;2.10;;
44116;SDS011;29781;49.480;8.512;2023-11-22T02:42:33;2.47;;;2.03;;
44116;SDS011;29781;49.480;8.512;2023-11-22T02:44:59;2.58;;;1.88;;
44116;SDS011;29781;49.480;8.512;2023-11-22T02:47:27;2.53;;;1.95;;
44116;SDS011;29781;49.480;8.512;2023-11-22T02:49:53;3.03;;;2.20;;
44116;SDS011;29781;49.480;8.512;2023-11-22T02:52:20;2.10;;;1.90;;
44116;SDS011;29781;49.480;8.512;2023-11-22T02:54:47;3.22;;;2.10;;
44116;SDS011;29781;49.480;8.512;2023-11-22T02:57:15;2.63;;;1.80;;
44116;SDS011;29781;49.480;8.512;2023-11-22T02:59:44;2.00;;;1.80;;
44116;SDS011;29781;49.480;8.512;2023-11-22T03:02:10;2.47;;;2.25;;
44116;SDS011;29781;49.480;8.512;2023-11-22T03:04:36;2.65;;;2.03;;
44116;SDS011;29781;49.480;8.512;2023-11-22T03:07:04;3.15;;;2.17;;
44116;SDS011;29781;49.480;8.512;2023-11-22T03:09:33;2.40;;;2.20;;
44116;SDS011;29781;49.480;8.512;2023-11-22T03:12:01;2.30;;;2.10;;
44116;SDS011;29781;49.480;8.512;2023-11-22T03:14:27;7.85;;;2.97;;
44116;SDS011;29781;49.480;8.512;2023-11-22T03:16:54;2.53;;;2.20;;
44116;SDS011;29781;49.480;8.512;2023-11-22T03:19:20;3.25;;;2.35;;
44116;SDS011;29781;49.480;8.512;2023-11-22T03:21:49;3.67;;;2.70;;
44116;SDS011;29781;49.480;8.512;2023-11-22T03:24:14;3.28;;;2.38;;
44116;SDS011;29781;49.480;8.512;2023-11-22T03:26:41;2.47;;;2.25;;
44116;SDS011;29781;49.480;8.512;2023-11-22T03:29:07;3.00;;;2.42;;
44116;SDS011;29781;49.480;8.512;2023-11-22T03:31:32;3.22;;;2.30;;
44116;SDS011;29781;49.480;8.512;2023-11-22T03:33:58;3.08;;;2.55;;
44116;SDS011;29781;49.480;8.512;2023-11-22T03:36:30;3.55;;;2.40;;
44116;SDS011;29781;49.480;8.512;2023-11-22T03:39:00;3.70;;;2.78;;
44116;SDS011;29781;49.480;8.512;2023-11-22T03:41:28;2.83;;;2.53;;
44116;SDS011;29781;49.480;8.512;2023-11-22T03:43:54;3.47;;;2.80;;
44116;SDS011;29781;49.480;8.512;2023-11-22T03:46:22;4.05;;;2.90;;
44116;SDS011;29781;49.480;8.512;2023-11-22T03:48:50;2.95;;;2.60;;
44116;SDS011;29781;49.480;8.512;2023-11-22T03:51:21;4.22;;;3.33;;
44116;SDS011;29781;49.480;8.512;2023-11-22T03:53:47;3.50;;;2.65;;
44116;SDS011;29781;49.480;8.512;2023-11-22T03:56:22;4.53;;;3.17;;
44116;SDS011;29781;49.480;8.512;2023-11-22T03:58:48;5.22;;;3.60;;
44116;SDS011;29781;49.480;8.512;2023-11-22T04:01:16;3.33;;;2.92;;
44116;SDS011;29781;49.480;8.512;2023-11-22T04:03:51;5.32;;;3.30;;
44116;SDS011;29781;49.480;8.512;2023-11-22T04:06:19;3.85;;;3.30;;
44116;SDS011;29781;49.480;8.512;2023-11-22T04:08:52;2.97;;;2.63;;
44116;SDS011;29781;49.480;8.512;2023-11-22T04:11:21;6.38;;;3.58;;
44116;SDS011;29781;49.480;8.512;2023-11-22T04:13:47;5.28;;;3.38;;
44116;SDS011;29781;49.480;8.512;2023-11-22T04:16:13;4.40;;;3.42;;
44116;SDS011;29781;49.480;8.512;2023-11-22T04:18:39;7.28;;;3.72;;
44116;SDS011;29781;49.480;8.512;2023-11-22T04:21:08;4.50;;;3.38;;
44116;SDS011;29781;49.480;8.512;2023-11-22T04:23:34;4.10;;;3.42;;
44116;SDS011;29781;49.480;8.512;2023-11-22T04:26:08;4.53;;;3.30;;
44116;SDS011;29781;49.480;8.512;2023-11-22T04:28:35;5.55;;;3.17;;
44116;SDS011;29781;49.480;8.512;2023-11-22T04:31:01;4.82;;;3.30;;
44116;SDS011;29781;49.480;8.512;2023-11-22T04:33:29;4.85;;;3.80;;
44116;SDS011;29781;49.480;8.512;2023-11-22T04:35:54;6.38;;;3.63;;
44116;SDS011;29781;49.480;8.512;2023-11-22T04:38:23;4.72;;;3.10;;
44116;SDS011;29781;49.480;8.512;2023-11-22T04:43:20;5.28;;;3.30;;
44116;SDS011;29781;49.480;8.512;2023-11-22T04:45:56;4.90;;;3.17;;
44116;SDS011;29781;49.480;8.512;2023-11-22T04:48:23;6.30;;;3.83;;
44116;SDS011;29781;49.480;8.512;2023-11-22T04:50:49;4.78;;;3.20;;
44116;SDS011;29781;49.480;8.512;2023-11-22T04:53:14;4.55;;;3.17;;
44116;SDS011;29781;49.480;8.512;2023-11-22T04:55:45;7.97;;;3.60;;
44116;SDS011;29781;49.480;8.512;2023-11-22T04:58:11;4.63;;;3.42;;
44116;SDS011;29781;49.480;8.512;2023-11-22T05:00:37;7.10;;;3.30;;
44116;SDS011;29781;49.480;8.512;2023-11-22T05:03:02;4.78;;;3.53;;
44116;SDS011;29781;49.480;8.512;2023-11-22T05:05:28;4.63;;;3.25;;
44116;SDS011;29781;49.480;8.512;2023-11-22T05:07:54;4.47;;;3.53;;
44116;SDS011;29781;49.480;8.512;2023-11-22T05:10:24;4.13;;;3.35;;
44116;SDS011;29781;49.480;8.512;2023-11-22T05:12:50;5.43;;;3.45;;
44116;SDS011;29781;49.480;8.512;2023-11-22T05:15:16;3.33;;;3.03;;
44116;SDS011;29781;49.480;8.512;2023-11-22T05:17:44;4.55;;;3.17;;
44116;SDS011;29781;49.480;8.512;2023-11-22T05:20:12;4.38;;;2.95;;
44116;SDS011;29781;49.480;8.512;2023-11-22T05:22:38;3.95;;;3.13;;
44116;SDS011;29781;49.480;8.512;2023-11-22T05:25:06;6.10;;;3.13;;
44116;SDS011;29781;49.480;8.512;2023-11-22T05:27:32;5.20;;;3.10;;
44116;SDS011;29781;49.480;8.512;2023-11-22T05:29:58;4.30;;;3.05;;
44116;SDS011;29781;49.480;8.512;2023-11-22T05:32:23;4.40;;;3.22;;
44116;SDS011;29781;49.480;8.512;2023-11-22T05:34:49;4.15;;;3.22;;
44116;SDS011;29781;49.480;8.512;2023-11-22T05:37:15;6.60;;;3.47;;
44116;SDS011;29781;49.480;8.512;2023-11-22T05:39:41;4.47;;;3.58;;
44116;SDS011;29781;49.480;8.512;2023-11-22T05:42:08;6.70;;;3.58;;
44116;SDS011;29781;49.480;8.512;2023-11-22T05:44:36;7.47;;;3.65;;
44116;SDS011;29781;49.480;8.512;2023-11-22T05:47:02;5.68;;;3.70;;
44116;SDS011;29781;49.480;8.512;2023-11-22T05:49:28;4.65;;;3.72;;
44116;SDS011;29781;49.480;8.512;2023-11-22T05:51:54;5.20;;;3.55;;
44116;SDS011;29781;49.480;8.512;2023-11-22T05:54:20;5.97;;;3.75;;
44116;SDS011;29781;49.480;8.512;2023-11-22T05:56:48;4.32;;;3.47;;
44116;SDS011;29781;49.480;8.512;2023-11-22T05:59:14;8.30;;;3.75;;
44116;SDS011;29781;49.480;8.512;2023-11-22T06:01:43;6.57;;;3.67;;
44116;SDS011;29781;49.480;8.512;2023-11-22T06:04:09;5.78;;;4.07;;
44116;SDS011;29781;49.480;8.512;2023-11-22T06:06:35;5.63;;;3.70;;
44116;SDS011;29781;49.480;8.512;2023-11-22T06:09:01;7.38;;;3.55;;
44116;SDS011;29781;49.480;8.512;2023-11-22T06:11:27;6.75;;;4.00;;
44116;SDS011;29781;49.480;8.512;2023-11-22T06:13:53;5.75;;;4.00;;
44116;SDS011;29781;49.480;8.512;2023-11-22T06:16:24;5.75;;;3.70;;
44116;SDS011;29781;49.480;8.512;2023-11-22T06:18:50;5.28;;;4.00;;
44116;SDS011;29781;49.480;8.512;2023-11-22T06:21:16;6.57;;;4.18;;
44116;SDS011;29781;49.480;8.512;2023-11-22T06:23:42;4.57;;;3.33;;
44116;SDS011;29781;49.480;8.512;2023-11-22T06:26:08;7.05;;;4.00;;
44116;SDS011;29781;49.480;8.512;2023-11-22T06:28:34;6.20;;;3.97;;
44116;SDS011;29781;49.480;8.512;2023-11-22T06:31:00;5.60;;;4.00;;
44116;SDS011;29781;49.480;8.512;2023-11-22T06:33:25;7.85;;;3.90;;
44116;SDS011;29781;49.480;8.512;2023-11-22T06:35:51;4.70;;;3.88;;
44116;SDS011;29781;49.480;8.512;2023-11-22T06:38:20;6.53;;;3.85;;
44116;SDS011;29781;49.480;8.512;2023-11-22T06:40:51;9.15;;;4.20;;
44116;SDS011;29781;49.480;8.512;2023-11-22T06:43:17;5.35;;;3.80;;
44116;SDS011;29781;49.480;8.512;2023-11-22T06:45:47;4.63;;;3.80;;
44116;SDS011;29781;49.480;8.512;2023-11-22T06:48:13;6.07;;;3.78;;
44116;SDS011;29781;49.480;8.512;2023-11-22T06:50:43;6.43;;;4.30;;
44116;SDS011;29781;49.480;8.512;2023-11-22T06:53:10;8.23;;;4.30;;
44116;SDS011;29781;49.480;8.512;2023-11-22T06:55:36;6.63;;;4.22;;
44116;SDS011;29781;49.480;8.512;2023-11-22T06:58:03;5.75;;;3.83;;
44116;SDS011;29781;49.480;8.512;2023-11-22T07:00:35;6.28;;;3.58;;
44116;SDS011;29781;49.480;8.512;2023-11-22T07:03:01;6.13;;;3.92;;
44116;SDS011;29781;49.480;8.512;2023-11-22T07:05:27;5.68;;;3.65;;
44116;SDS011;29781;49.480;8.512;2023-11-22T07:07:55;8.43;;;4.05;;
44116;SDS011;29781;49.480;8.512;2023-11-22T07:10:23;5.65;;;3.63;;
44116;SDS011;29781;49.480;8.512;2023-11-22T07:12:49;6.55;;;3.97;;
44116;SDS011;29781;49.480;8.512;2023-11-22T07:15:16;8.23;;;3.70;;
44116;SDS011;29781;49.480;8.512;2023-11-22T07:17:41;5.60;;;3.47;;
44116;SDS011;29781;49.480;8.512;2023-11-22T07:20:07;5.40;;;3.63;;
44116;SDS011;29781;49.480;8.512;2023-11-22T07:22:37;8.10;;;4.38;;
44116;SDS011;29781;49.480;8.512;2023-11-22T07:25:04;6.07;;;3.65;;
44116;SDS011;29781;49.480;8.512;2023-11-22T07:27:39;6.18;;;4.00;;
44116;SDS011;29781;49.480;8.512;2023-11-22T07:30:05;5.43;;;3.50;;
44116;SDS011;29781;49.480;8.512;2023-11-22T07:32:36;6.40;;;3.80;;
44116;SDS011;29781;49.480;8.512;2023-11-22T07:35:02;4.43;;;3.30;;
44116;SDS011;29781;49.480;8.512;2023-11-22T07:37:28;5.22;;;3.17;;
44116;SDS011;29781;49.480;8.512;2023-11-22T07:39:56;4.82;;;3.25;;
44116;SDS011;29781;49.480;8.512;2023-11-22T07:42:22;4.90;;;3.30;;
44116;SDS011;29781;49.480;8.512;2023-11-22T07:44:48;7.75;;;3.50;;
44116;SDS011;29781;49.480;8.512;2023-11-22T07:47:21;5.13;;;3.70;;
44116;SDS011;29781;49.480;8.512;2023-11-22T07:49:49;5.38;;;3.35;;
44116;SDS011;29781;49.480;8.512;2023-11-22T07:52:20;6.45;;;3.53;;
44116;SDS011;29781;49.480;8.512;2023-11-22T07:54:56;4.93;;;3.30;;
44116;SDS011;29781;49.480;8.512;2023-11-22T07:57:22;6.28;;;3.65;;
44116;SDS011;29781;49.480;8.512;2023-11-22T07:59:49;5.10;;;3.65;;
44116;SDS011;29781;49.480;8.512;2023-11-22T08:02:20;5.65;;;3.42;;
44116;SDS011;29781;49.480;8.512;2023-11-22T08:04:46;5.07;;;3.45;;
44116;SDS011;29781;49.480;8.512;2023-11-22T08:07:13;6.20;;;3.60;;
44116;SDS011;29781;49.480;8.512;2023-11-22T08:09:43;5.97;;;3.33;;
44116;SDS011;29781;49.480;8.512;2023-11-22T08:12:09;6.35;;;3.60;;
44116;SDS011;29781;49.480;8.512;2023-11-22T08:14:38;4.93;;;3.45;;
44116;SDS011;29781;49.480;8.512;2023-11-22T08:17:05;5.80;;;3.50;;
44116;SDS011;29781;49.480;8.512;2023-11-22T08:19:31;6.07;;;3.55;;
44116;SDS011;29781;49.480;8.512;2023-11-22T08:21:58;5.78;;;3.83;;
44116;SDS011;29781;49.480;8.512;2023-11-22T08:24:30;5.53;;;3.65;;
44116;SDS011;29781;49.480;8.512;2023-11-22T08:26:59;5.50;;;3.95;;
44116;SDS011;29781;49.480;8.512;2023-11-22T08:29:25;5.25;;;3.70;;
44116;SDS011;29781;49.480;8.512;2023-11-22T08:31:51;5.60;;;3.20;;
44116;SDS011;29781;49.480;8.512;2023-11-22T08:34:17;4.53;;;3.45;;
44116;SDS011;29781;49.480;8.512;2023-11-22T08:36:42;5.18;;;3.17;;
44116;SDS011;29781;49.480;8.512;2023-11-22T08:39:08;12.40;;;3.60;;
44116;SDS011;29781;49.480;8.512;2023-11-22T08:41:34;4.38;;;3.53;;
44116;SDS011;29781;49.480;8.512;2023-11-22T08:44:03;5.53;;;3.80;;
44116;SDS011;29781;49.480;8.512;2023-11-22T08:46:31;8.15;;;3.88;;
44116;SDS011;29781;49.480;8.512;2023-11-22T08:49:00;5.05;;;3.72;;
44116;SDS011;29781;49.480;8.512;2023-11-22T08:51:27;4.75;;;3.75;;
44116;SDS011;29781;49.480;8.512;2023-11-22T08:53:53;5.60;;;3.53;;
44116;SDS011;29781;49.480;8.512;2023-11-22T08:56:19;5.22;;;3.67;;
44116;SDS011;29781;49.480;8.512;2023-11-22T08:58:45;4.93;;;2.85;;
44116;SDS011;29781;49.480;8.512;2023-11-22T09:01:11;4.30;;;3.17;;
44116;SDS011;29781;49.480;8.512;2023-11-22T09:03:42;3.53;;;3.03;;
44116;SDS011;29781;49.480;8.512;2023-11-22T09:06:11;8.25;;;3.42;;
44116;SDS011;29781;49.480;8.512;2023-11-22T09:08:38;5.43;;;3.10;;
44116;SDS011;29781;49.480;8.512;2023-11-22T09:11:04;5.22;;;2.75;;
44116;SDS011;29781;49.480;8.512;2023-11-22T09:13:34;3.75;;;3.08;;
44116;SDS011;29781;49.480;8.512;2023-11-22T09:16:00;16.50;;;4.47;;
44116;SDS011;29781;49.480;8.512;2023-11-22T09:18:25;5.20;;;3.47;;
44116;SDS011;29781;49.480;8.512;2023-11-22T09:20:53;5.32;;;3.05;;
44116;SDS011;29781;49.480;8.512;2023-11-22T09:23:19;4.25;;;2.42;;
44116;SDS011;29781;49.480;8.512;2023-11-22T09:25:46;4.25;;;3.17;;
44116;SDS011;29781;49.480;8.512;2023-11-22T09:28:19;3.45;;;2.95;;
44116;SDS011;29781;49.480;8.512;2023-11-22T09:30:49;5.15;;;3.03;;
44116;SDS011;29781;49.480;8.512;2023-11-22T09:35:44;3.63;;;2.83;;
44116;SDS011;29781;49.480;8.512;2023-11-22T09:38:12;4.72;;;3.75;;
44116;SDS011;29781;49.480;8.512;2023-11-22T09:40:42;6.95;;;3.28;;
44116;SDS011;29781;49.480;8.512;2023-11-22T09:43:13;5.28;;;4.10;;
44116;SDS011;29781;49.480;8.512;2023-11-22T09:45:43;5.40;;;3.92;;
44116;SDS011;29781;49.480;8.512;2023-11-22T09:48:16;4.90;;;3.78;;
44116;SDS011;29781;49.480;8.512;2023-11-22T09:56:15;6.68;;;3.30;;
44116;SDS011;29781;49.480;8.512;2023-11-22T09:58:44;3.70;;;3.22;;
44116;SDS011;29781;49.480;8.512;2023-11-22T10:01:10;6.00;;;4.05;;
44116;SDS011;29781;49.480;8.512;2023-11-22T10:03:38;6.47;;;4.32;;
44116;SDS011;29781;49.480;8.512;2023-11-22T10:06:07;6.00;;;4.10;;
44116;SDS011;29781;49.480;8.512;2023-11-22T10:08:33;5.65;;;4.25;;
44116;SDS011;29781;49.480;8.512;2023-11-22T10:11:00;6.05;;;4.00;;
44116;SDS011;29781;49.480;8.512;2023-11-22T10:13:26;5.18;;;3.67;;
44116;SDS011;29781;49.480;8.512;2023-11-22T10:15:53;6.07;;;3.70;;
44116;SDS011;29781;49.480;8.512;2023-11-22T10:18:21;5.85;;;4.20;;
44116;SDS011;29781;49.480;8.512;2023-11-22T10:20:50;5.05;;;3.90;;
44116;SDS011;29781;49.480;8.512;2023-11-22T10:23:28;5.78;;;3.85;;
44116;SDS011;29781;49.480;8.512;2023-11-22T10:25:54;5.15;;;3.55;;
44116;SDS011;29781;49.480;8.512;2023-11-22T10:28:21;4.75;;;3.67;;
44116;SDS011;29781;49.480;8.512;2023-11-22T10:30:51;6.38;;;3.78;;
44116;SDS011;29781;49.480;8.512;2023-11-22T10:33:18;8.57;;;6.13;;
44116;SDS011;29781;49.480;8.512;2023-11-22T10:35:48;8.48;;;4.10;;
44116;SDS011;29781;49.480;8.512;2023-11-22T10:38:18;5.07;;;3.58;;
44116;SDS011;29781;49.480;8.512;2023-11-22T10:40:45;6.22;;;3.95;;
44116;SDS011;29781;49.480;8.512;2023-11-22T10:43:13;6.88;;;3.50;;
44116;SDS011;29781;49.480;8.512;2023-11-22T10:45:44;6.05;;;3.28;;
44116;SDS011;29781;49.480;8.512;2023-11-22T10:48:14;4.63;;;3.33;;
44116;SDS011;29781;49.480;8.512;2023-11-22T10:50:41;7.72;;;3.83;;
44116;SDS011;29781;49.480;8.512;2023-11-22T10:53:10;5.10;;;3.45;;
44116;SDS011;29781;49.480;8.512;2023-11-22T10:55:40;6.57;;;4.22;;
44116;SDS011;29781;49.480;8.512;2023-11-22T10:58:10;6.93;;;3.83;;
44116;SDS011;29781;49.480;8.512;2023-11-22T11:00:39;4.43;;;3.53;;
44116;SDS011;29781;49.480;8.512;2023-11-22T11:03:17;5.53;;;3.35;;
44116;SDS011;29781;49.480;8.512;2023-11-22T11:05:51;5.95;;;3.80;;
44116;SDS011;29781;49.480;8.512;2023-11-22T11:08:29;7.78;;;3.38;;
44116;SDS011;29781;49.480;8.512;2023-11-22T11:10:57;6.38;;;3.58;;
44116;SDS011;29781;49.480;8.512;2023-11-22T11:13:24;4.93;;;3.55;;
44116;SDS011;29781;49.480;8.512;2023-11-22T11:15:52;4.65;;;3.50;;
44116;SDS011;29781;49.480;8.512;2023-11-22T11:18:19;4.57;;;3.33;;
44116;SDS011;29781;49.480;8.512;2023-11-22T11:23:24;4.20;;;3.55;;
44116;SDS011;29781;49.480;8.512;2023-11-22T11:25:57;6.63;;;3.78;;
44116;SDS011;29781;49.480;8.512;2023-11-22T11:28:25;5.53;;;3.47;;
44116;SDS011;29781;49.480;8.512;2023-11-22T11:30:51;5.53;;;4.10;;
44116;SDS011;29781;49.480;8.512;2023-11-22T11:33:26;6.03;;;3.58;;
44116;SDS011;29781;49.480;8.512;2023-11-22T11:36:01;4.88;;;2.85;;
44116;SDS011;29781;49.480;8.512;2023-11-22T11:38:32;4.57;;;3.47;;
44116;SDS011;29781;49.480;8.512;2023-11-22T11:41:09;3.90;;;3.30;;
44116;SDS011;29781;49.480;8.512;2023-11-22T11:43:42;4.72;;;3.45;;
44116;SDS011;29781;49.480;8.512;2023-11-22T11:46:11;5.45;;;3.55;;
44116;SDS011;29781;49.480;8.512;2023-11-22T11:48:37;5.15;;;3.83;;
44116;SDS011;29781;49.480;8.512;2023-11-22T11:51:13;4.93;;;3.67;;
44116;SDS011;29781;49.480;8.512;2023-11-22T11:53:42;5.00;;;3.92;;
44116;SDS011;29781;49.480;8.512;2023-11-22T11:56:14;5.40;;;3.70;;
44116;SDS011;29781;49.480;8.512;2023-11-22T11:58:43;6.50;;;3.65;;
44116;SDS011;29781;49.480;8.512;2023-11-22T12:01:13;5.75;;;3.88;;
44116;SDS011;29781;49.480;8.512;2023-11-22T12:03:39;3.33;;;2.75;;
44116;SDS011;29781;49.480;8.512;2023-11-22T12:06:06;5.78;;;4.00;;
44116;SDS011;29781;49.480;8.512;2023-11-22T12:08:32;6.20;;;3.42;;
44116;SDS011;29781;49.480;8.512;2023-11-22T12:11:05;7.30;;;3.60;;
44116;SDS011;29781;49.480;8.512;2023-11-22T12:13:35;5.68;;;3.55;;
44116;SDS011;29781;49.480;8.512;2023-11-22T12:16:04;5.70;;;3.88;;
44116;SDS011;29781;49.480;8.512;2023-11-22T12:18:41;6.45;;;3.58;;
44116;SDS011;29781;49.480;8.512;2023-11-22T12:23:40;5.68;;;3.42;;
44116;SDS011;29781;49.480;8.512;2023-11-22T12:26:14;5.30;;;3.47;;
44116;SDS011;29781;49.480;8.512;2023-11-22T12:28:41;5.80;;;3.53;;
44116;SDS011;29781;49.480;8.512;2023-11-22T12:31:11;4.68;;;3.33;;
44116;SDS011;29781;49.480;8.512;2023-11-22T12:33:40;4.50;;;3.72;;
44116;SDS011;29781;49.480;8.512;2023-11-22T12:36:10;6.82;;;3.90;;
44116;SDS011;29781;49.480;8.512;2023-11-22T12:38:41;5.30;;;4.18;;
44116;SDS011;29781;49.480;8.512;2023-11-22T12:41:07;4.20;;;3.67;;
44116;SDS011;29781;49.480;8.512;2023-11-22T12:43:36;4.82;;;3.72;;
44116;SDS011;29781;49.480;8.512;2023-11-22T12:46:05;5.70;;;3.67;;
44116;SDS011;29781;49.480;8.512;2023-11-22T12:48:32;24.00;;;5.38;;
44116;SDS011;29781;49.480;8.512;2023-11-22T12:51:01;4.55;;;3.38;;
44116;SDS011;29781;49.480;8.512;2023-11-22T12:53:30;7.15;;;3.97;;
44116;SDS011;29781;49.480;8.512;2023-11-22T12:58:25;5.68;;;3.70;;
44116;SDS011;29781;49.480;8.512;2023-11-22T13:00:57;4.68;;;3.55;;
44116;SDS011;29781;49.480;8.512;2023-11-22T13:03:31;5.47;;;3.85;;
44116;SDS011;29781;49.480;8.512;2023-11-22T13:05:57;5.47;;;3.85;;
44116;SDS011;29781;49.480;8.512;2023-11-22T13:08:28;5.07;;;3.55;;
44116;SDS011;29781;49.480;8.512;2023-11-22T13:10:55;6.68;;;4.00;;
44116;SDS011;29781;49.480;8.512;2023-11-22T13:13:22;4.15;;;3.25;;
44116;SDS011;29781;49.480;8.512;2023-11-22T13:15:51;4.22;;;3.75;;
44116;SDS011;29781;49.480;8.512;2023-11-22T13:18:17;3.83;;;3.40;;
44116;SDS011;29781;49.480;8.512;2023-11-22T13:20:43;6.70;;;3.60;;
44116;SDS011;29781;49.480;8.512;2023-11-22T13:23:12;5.80;;;3.60;;
44116;SDS011;29781;49.480;8.512;2023-11-22T13:25:39;3.80;;;3.05;;
44116;SDS011;29781;49.480;8.512;2023-11-22T13:28:08;5.68;;;3.25;;
44116;SDS011;29781;49.480;8.512;2023-11-22T13:30:36;5.68;;;3.35;;
44116;SDS011;29781;49.480;8.512;2023-11-22T13:33:04;4.40;;;3.28;;
44116;SDS011;29781;49.480;8.512;2023-11-22T13:35:30;4.18;;;3.25;;
44116;SDS011;29781;49.480;8.512;2023-11-22T13:38:01;4.65;;;3.58;;
44116;SDS011;29781;49.480;8.512;2023-11-22T13:40:28;4.30;;;3.30;;
44116;SDS011;29781;49.480;8.512;2023-11-22T13:42:57;6.40;;;3.72;;
44116;SDS011;29781;49.480;8.512;2023-11-22T13:45:23;4.05;;;3.40;;
44116;SDS011;29781;49.480;8.512;2023-11-22T13:47:51;4.63;;;3.50;;
44116;SDS011;29781;49.480;8.512;2023-11-22T13:50:25;3.80;;;3.05;;
44116;SDS011;29781;49.480;8.512;2023-11-22T13:52:55;3.75;;;3.20;;
44116;SDS011;29781;49.480;8.512;2023-11-22T13:55:22;5.65;;;3.20;;
44116;SDS011;29781;49.480;8.512;2023-11-22T13:57:49;5.40;;;3.35;;
44116;SDS011;29781;49.480;8.512;2023-11-22T14:00:19;4.43;;;3.30;;
44116;SDS011;29781;49.480;8.512;2023-11-22T14:02:50;4.35;;;3.20;;
44116;SDS011;29781;49.480;8.512;2023-11-22T14:05:18;6.15;;;3.60;;
44116;SDS011;29781;49.480;8.512;2023-11-22T14:07:44;4.63;;;3.40;;
44116;SDS011;29781;49.480;8.512;2023-11-22T14:10:10;5.10;;;3.60;;
44116;SDS011;29781;49.480;8.512;2023-11-22T14:12:37;5.75;;;3.83;;
44116;SDS011;29781;49.480;8.512;2023-11-22T14:15:10;4.13;;;3.60;;
44116;SDS011;29781;49.480;8.512;2023-11-22T14:17:39;5.05;;;3.35;;
44116;SDS011;29781;49.480;8.512;2023-11-22T14:20:10;4.28;;;3.15;;
44116;SDS011;29781;49.480;8.512;2023-11-22T14:22:37;6.53;;;3.40;;
44116;SDS011;29781;49.480;8.512;2023-11-22T14:25:07;4.57;;;3.67;;
44116;SDS011;29781;49.480;8.512;2023-11-22T14:27:37;4.78;;;3.47;;
44116;SDS011;29781;49.480;8.512;2023-11-22T14:30:12;4.03;;;3.20;;
44116;SDS011;29781;49.480;8.512;2023-11-22T14:32:44;4.50;;;3.33;;
44116;SDS011;29781;49.480;8.512;2023-11-22T14:35:10;6.65;;;3.47;;
44116;SDS011;29781;49.480;8.512;2023-11-22T14:37:36;5.57;;;3.80;;
44116;SDS011;29781;49.480;8.512;2023-11-22T14:40:08;4.40;;;3.60;;
44116;SDS011;29781;49.480;8.512;2023-11-22T14:42:41;8.98;;;3.75;;
44116;SDS011;29781;49.480;8.512;2023-11-22T14:45:08;5.80;;;3.67;;
44116;SDS011;29781;49.480;8.512;2023-11-22T14:47:34;4.47;;;3.20;;
44116;SDS011;29781;49.480;8.512;2023-11-22T14:50:05;4.38;;;3.50;;
44116;SDS011;29781;49.480;8.512;2023-11-22T14:52:33;4.18;;;3.17;;
44116;SDS011;29781;49.480;8.512;2023-11-22T14:55:01;5.60;;;3.58;;
44116;SDS011;29781;49.480;8.512;2023-11-22T14:57:27;4.45;;;3.38;;
44116;SDS011;29781;49.480;8.512;2023-11-22T14:59:53;6.93;;;3.47;;
44116;SDS011;29781;49.480;8.512;2023-11-22T15:02:19;4.90;;;3.55;;
44116;SDS011;29781;49.480;8.512;2023-11-22T15:04:46;6.75;;;3.20;;
44116;SDS011;29781;49.480;8.512;2023-11-22T15:07:12;4.28;;;3.42;;
44116;SDS011;29781;49.480;8.512;2023-11-22T15:09:40;4.72;;;3.63;;
44116;SDS011;29781;49.480;8.512;2023-11-22T15:12:06;4.35;;;3.25;;